Time;durP1;ratioP1;P1;durP2;ratioP2;P2;SDS_P1;SDS_P2;PMS_P1;PMS_P2;Temp;Humidity;BMP_temperature;BMP_pressure;BME280_temperature;BME280_humidity;BME280_pressure;Samples;Min_cycle;Max_cycle;Signal;HPM_P1;HPM_P2
2022/09/10 00:00:45;;;;;;;2.83;1.10;;;;;;;14.28;97.47;99643.28;6152450;22;20297;-82
2022/09/10 00:03:12;;;;;;;2.05;0.85;;;;;;;14.28;97.45;99637.78;6151634;22;20434;-82
2022/09/10 00:05:42;;;;;;;3.97;1.67;;;;;;;14.30;97.30;99635.47;6151211;22;20348;-82
2022/09/10 00:08:08;;;;;;;3.15;1.00;;;;;;;14.31;97.38;99631.56;6164155;22;20013;-80
2022/09/10 00:10:42;;;;;;;5.20;1.25;;;;;;;14.33;97.35;99642.94;6253486;22;20324;-81
2022/09/10 00:13:08;;;;;;;3.10;0.93;;;;;;;14.33;96.28;99627.28;6150641;22;20005;-80
2022/09/10 00:15:41;;;;;;;7.40;1.65;;;;;;;14.36;95.90;99636.72;6150369;22;20029;-78
2022/09/10 00:18:08;;;;;;;3.03;1.08;;;;;;;14.39;94.89;99636.75;6246715;22;20005;-80
2022/09/10 00:20:40;;;;;;;4.40;1.25;;;;;;;14.40;94.53;99634.81;6252925;22;20443;-79
2022/09/10 00:23:06;;;;;;;1.85;0.90;;;;;;;14.42;93.81;99640.69;6152100;22;20002;-79
2022/09/10 00:25:31;;;;;;;5.85;0.95;;;;;;;14.42;93.60;99640.69;6149816;23;20022;-79
2022/09/10 00:27:58;;;;;;;;;;;;;;;14.44;92.88;99643.88;6253216;22;20083;-78
2022/09/10 00:30:25;;;;;;;3.25;0.73;;;;;;;14.42;93.10;99638.75;6150072;23;19908;-79
2022/09/10 00:32:51;;;;;;;2.35;0.80;;;;;;;14.42;93.44;99643.44;6150835;22;20006;-79
2022/09/10 00:35:18;;;;;;;1.63;0.60;;;;;;;14.45;92.33;99637.28;6227368;22;20020;-79
2022/09/10 00:37:44;;;;;;;1.33;0.60;;;;;;;14.45;92.12;99645.47;6150897;22;19997;-79
2022/09/10 00:40:10;;;;;;;1.90;0.70;;;;;;;14.44;91.88;99636.47;6150159;22;20004;-78
2022/09/10 00:42:35;;;;;;;2.60;0.60;;;;;;;14.49;91.78;99637.31;6252878;22;20430;-78
2022/09/10 00:45:03;;;;;;;1.85;0.80;;;;;;;14.47;91.79;99643.16;6150318;22;20002;-78
2022/09/10 00:47:34;;;;;;;1.73;0.60;;;;;;;14.44;91.83;99638.41;6150469;22;20036;-78
2022/09/10 00:50:38;;;;;;;1.70;0.85;;;;;;;14.43;92.34;99637.59;6150545;22;20437;-79
2022/09/10 00:53:07;;;;;;;2.72;0.80;;;;;;;14.42;92.49;99637.97;6151545;23;20013;-78
2022/09/10 00:55:34;;;;;;;1.80;0.68;;;;;;;14.41;92.76;99637.16;6228811;22;20460;-78
2022/09/10 00:58:04;;;;;;;2.45;0.77;;;;;;;14.40;92.90;99638.34;6252113;22;20461;-79
2022/09/10 01:00:30;;;;;;;2.13;0.75;;;;;;;14.38;93.01;99637.91;6253391;22;20002;-80
2022/09/10 01:02:57;;;;;;;3.10;1.05;;;;;;;14.40;92.71;99634.81;6149798;22;20001;-79
2022/09/10 01:05:23;;;;;;;3.92;0.80;;;;;;;14.40;93.07;99626.59;6252429;22;20012;-80
2022/09/10 01:07:49;;;;;;;3.72;0.85;;;;;;;14.40;93.11;99632.84;6150751;22;20001;-80
2022/09/10 01:10:28;;;;;;;2.00;0.93;;;;;;;14.60;93.25;99630.00;6254338;22;20018;-79
2022/09/10 01:13:17;;;;;;;2.72;1.15;;;;;;;14.42;92.65;99627.00;6151519;22;20007;-79
2022/09/10 01:16:17;;;;;;;1.73;0.68;;;;;;;14.38;92.97;99628.91;6254442;22;20009;-79
2022/09/10 01:19:08;;;;;;;1.75;0.95;;;;;;;14.34;93.15;99623.41;6151305;22;20303;-80
2022/09/10 01:21:41;;;;;;;5.13;0.90;;;;;;;14.32;93.53;99622.97;6157455;22;20071;-81
2022/09/10 01:24:40;;;;;;;2.78;0.90;;;;;;;14.35;93.69;99624.19;6151071;22;20016;-79
2022/09/10 01:27:27;;;;;;;3.35;1.00;;;;;;;14.27;93.61;99622.50;6151360;23;20063;-79
2022/09/10 01:30:06;;;;;;;2.03;0.80;;;;;;;14.26;93.85;99609.97;6150814;23;20450;-79
2022/09/10 01:32:57;;;;;;;5.63;1.30;;;;;;;14.23;93.98;99613.44;6151625;22;20076;-80
2022/09/10 01:35:45;;;;;;;3.33;0.90;;;;;;;14.17;94.35;99613.00;6151088;23;20001;-80
2022/09/10 01:38:20;;;;;;;3.30;1.48;;;;;;;14.17;94.31;99621.22;6153058;22;20013;-79
2022/09/10 01:40:46;;;;;;;2.47;1.00;;;;;;;14.13;94.43;99607.47;6254507;22;20028;-79
2022/09/10 01:43:12;;;;;;;;;;;;;;;14.12;94.35;99607.84;6151854;22;20359;-78
2022/09/10 01:45:43;;;;;;;3.33;0.98;;;;;;;14.09;94.50;99614.84;6254408;22;19915;-79
2022/09/10 01:48:33;;;;;;;2.20;0.75;;;;;;;14.09;94.44;99614.84;6254419;22;20345;-79
2022/09/10 01:51:16;;;;;;;1.60;0.70;;;;;;;14.06;94.80;99601.88;6151003;23;20010;-79
2022/09/10 01:53:48;;;;;;;2.45;0.98;;;;;;;14.04;94.78;99611.63;6254228;22;20035;-79
2022/09/10 01:56:33;;;;;;;2.00;0.70;;;;;;;14.04;94.74;99609.69;6151038;23;20009;-79
2022/09/10 01:59:08;;;;;;;3.10;0.90;;;;;;;14.02;94.84;99609.28;6254138;22;20096;-79
2022/09/10 02:01:49;;;;;;;3.30;1.00;;;;;;;14.04;94.78;99612.41;6151487;22;20025;-79
2022/09/10 02:04:18;;;;;;;3.92;0.77;;;;;;;14.03;94.62;99616.31;6151354;22;20105;-79
2022/09/10 02:06:48;;;;;;;7.13;1.33;;;;;;;14.04;94.89;99614.38;6151436;22;20498;-79
2022/09/10 02:09:15;;;;;;;2.53;1.13;;;;;;;14.06;94.83;99615.56;6151689;22;20016;-79
2022/09/10 02:11:46;;;;;;;1.67;0.70;;;;;;;14.07;94.59;99605.41;6151311;22;20498;-79
2022/09/10 02:14:15;;;;;;;1.38;0.60;;;;;;;14.05;94.73;99622.22;6151632;22;20330;-79
2022/09/10 02:16:46;;;;;;;3.08;0.90;;;;;;;14.06;94.63;99623.78;6254550;22;20291;-79
2022/09/10 02:19:13;;;;;;;2.42;1.00;;;;;;;14.09;94.69;99623.03;6151194;22;20086;-79
2022/09/10 02:21:39;;;;;;;2.50;1.00;;;;;;;14.11;94.72;99630.91;6151469;22;20010;-79
2022/09/10 02:24:08;;;;;;;1.85;0.85;;;;;;;14.11;94.56;99628.97;6253767;22;20439;-79
2022/09/10 02:26:38;;;;;;;4.88;0.90;;;;;;;14.15;94.27;99627.06;6151186;22;20063;-79
2022/09/10 02:29:05;;;;;;;2.10;0.95;;;;;;;14.14;94.88;99628.22;6151327;22;20343;-79
2022/09/10 02:31:30;;;;;;;3.22;0.90;;;;;;;14.17;94.86;99623.16;6150943;23;20352;-80
2022/09/10 02:33:56;;;;;;;2.30;0.90;;;;;;;14.24;94.13;99631.47;6151141;23;20096;-80
2022/09/10 02:36:24;;;;;;;;;;;;;;;14.19;94.43;99623.56;6151548;23;20009;-80
2022/09/10 02:38:55;;;;;;;1.98;0.82;;;;;;;14.30;94.18;99622.56;6151340;23;20385;-79
2022/09/10 02:41:24;;;;;;;2.22;1.00;;;;;;;14.24;94.51;99615.81;6151659;22;20330;-79
2022/09/10 02:43:50;;;;;;;3.15;1.00;;;;;;;14.19;94.91;99621.63;6151307;23;20055;-79
2022/09/10 02:46:15;;;;;;;;;;;;;;;14.22;94.84;99620.09;6254580;22;20006;-79
2022/09/10 02:48:41;;;;;;;4.15;0.95;;;;;;;14.21;94.77;99621.25;6150922;22;19955;-80
2022/09/10 02:51:07;;;;;;;;;;;;;;;14.18;95.44;99625.53;6151834;22;20001;-80
2022/09/10 02:53:34;;;;;;;2.97;0.80;;;;;;;14.19;95.70;99626.31;6253859;22;19911;-79
2022/09/10 02:56:00;;;;;;;2.83;1.27;;;;;;;14.14;95.98;99625.47;6151501;23;20001;-80
2022/09/10 02:58:25;;;;;;;3.92;1.58;;;;;;;14.13;96.42;99623.91;6253017;22;20449;-80
2022/09/10 03:00:50;;;;;;;;;;;;;;;14.08;97.04;99623.41;6254295;22;20005;-80
2022/09/10 03:03:16;;;;;;;4.07;1.03;;;;;;;14.01;97.72;99626.84;6150787;23;19910;-85
2022/09/10 03:05:42;;;;;;;;;;;;;;;13.96;98.28;99624.44;6151494;23;20012;-86
2022/09/10 03:08:08;;;;;;;3.63;1.00;;;;;;;13.93;98.97;99624.38;6253316;22;19960;-84
2022/09/10 03:10:36;;;;;;;2.90;1.20;;;;;;;13.86;99.24;99627.81;6253463;22;20010;-85
2022/09/10 03:13:02;;;;;;;3.55;1.40;;;;;;;13.81;100.00;99622.66;6150986;22;20008;-85
2022/09/10 03:15:27;;;;;;;4.10;1.33;;;;;;;13.80;100.00;99621.06;6253655;22;20014;-86
2022/09/10 03:17:53;;;;;;;3.03;1.10;;;;;;;13.81;100.00;99628.13;6151005;23;20028;-85
2022/09/10 03:20:21;;;;;;;3.20;1.00;;;;;;;13.79;100.00;99630.44;6151583;22;19998;-83
2022/09/10 03:22:48;;;;;;;2.40;1.00;;;;;;;13.69;100.00;99628.31;6151137;22;19997;-85
2022/09/10 03:25:13;;;;;;;3.80;1.25;;;;;;;13.57;100.00;99629.28;6253116;22;20025;-82
2022/09/10 03:27:39;;;;;;;3.60;1.20;;;;;;;13.47;100.00;99629.94;6150658;22;20054;-83
2022/09/10 03:30:05;;;;;;;5.13;1.15;;;;;;;13.39;100.00;99629.00;6252159;22;20466;-82
2022/09/10 03:32:31;;;;;;;4.28;1.17;;;;;;;13.34;100.00;99618.38;6150512;23;20329;-84
2022/09/10 03:34:56;;;;;;;;;;;;;;;13.33;100.00;99616.81;6151132;23;20006;-83
2022/09/10 03:37:22;;;;;;;4.68;1.55;;;;;;;13.31;100.00;99621.84;6151279;22;20224;-83
2022/09/10 03:39:48;;;;;;;2.70;1.08;;;;;;;13.27;100.00;99617.44;6252288;22;20002;-86
2022/09/10 03:42:14;;;;;;;5.22;1.55;;;;;;;13.24;100.00;99614.28;6150524;22;20006;-83
2022/09/10 03:44:39;;;;;;;4.47;2.10;;;;;;;13.28;100.00;99619.06;6252983;22;20070;-83
2022/09/10 03:47:05;;;;;;;;;;;;;;;13.25;100.00;99615.09;6151113;23;20076;-84
2022/09/10 03:49:30;;;;;;;4.57;1.50;;;;;;;13.22;100.00;99613.88;6150459;23;19975;-85
2022/09/10 03:51:55;;;;;;;2.97;1.30;;;;;;;13.19;100.00;99622.81;6150915;23;20012;-83
2022/09/10 03:54:21;;;;;;;4.90;1.70;;;;;;;13.27;100.00;99621.00;6150881;23;20013;-86
2022/09/10 03:56:46;;;;;;;3.75;1.52;;;;;;;13.19;100.00;99622.03;6255002;22;20771;-86
2022/09/10 03:59:16;;;;;;;;;;;;;;;13.17;100.00;99629.75;6152595;22;19998;-84
2022/09/10 04:01:43;;;;;;;5.22;2.15;;;;;;;13.19;100.00;99622.03;6152308;23;19911;-85
2022/09/10 04:04:08;;;;;;;4.10;1.70;;;;;;;13.15;100.00;99626.59;6254852;22;20005;-84
2022/09/10 04:06:36;;;;;;;6.70;1.90;;;;;;;13.22;100.00;99619.34;6253610;22;20010;-84
2022/09/10 04:09:01;;;;;;;3.45;1.40;;;;;;;13.17;100.00;99616.88;6227794;22;20014;-87
2022/09/10 04:11:27;;;;;;;6.07;1.95;;;;;;;13.18;100.00;99617.72;6253001;22;20016;-86
2022/09/10 04:13:53;;;;;;;4.43;2.05;;;;;;;13.22;100.00;99618.56;6150846;22;20047;-86
2022/09/10 04:16:20;;;;;;;;;;;;;;;13.23;100.00;99622.88;6150800;23;20016;-86
2022/09/10 04:18:45;;;;;;;3.90;1.53;;;;;;;13.30;100.00;99608.53;6150157;23;19904;-84
2022/09/10 04:21:11;;;;;;;3.28;1.60;;;;;;;13.38;100.00;99611.03;6151778;22;20233;-85
2022/09/10 04:23:40;;;;;;;4.70;2.13;;;;;;;13.48;100.00;99604.16;6252536;22;20453;-84
2022/09/10 04:26:16;;;;;;;5.18;2.10;;;;;;;13.37;100.00;99598.50;6252534;22;20459;-85
2022/09/10 04:28:42;;;;;;;5.72;2.15;;;;;;;13.43;100.00;99607.97;6228193;22;20013;-83
2022/09/10 04:31:08;;;;;;;5.13;2.38;;;;;;;13.28;100.00;99617.13;6252677;22;20491;-86
2022/09/10 04:33:34;;;;;;;;;;;;;;;13.25;100.00;99612.34;6253432;22;20008;-85
2022/09/10 04:35:59;;;;;;;8.10;2.58;;;;;;;13.24;100.00;99617.03;6252618;22;19905;-86
2022/09/10 04:38:25;;;;;;;3.80;1.90;;;;;;;13.23;100.00;99620.91;6252591;22;20012;-85
2022/09/10 04:40:51;;;;;;;5.38;2.50;;;;;;;13.27;100.00;99620.19;6150296;22;20005;-84
2022/09/10 04:43:17;;;;;;;4.47;2.30;;;;;;;13.24;100.00;99618.97;6254394;22;20013;-86
2022/09/10 04:45:43;;;;;;;8.55;3.10;;;;;;;13.24;100.00;99625.22;6151801;23;20072;-85
2022/09/10 04:48:08;;;;;;;4.65;2.30;;;;;;;13.24;100.00;99630.69;6254333;22;20088;-87
2022/09/10 04:50:34;;;;;;;;;;;;;;;13.26;100.00;99627.59;6254536;22;20016;-92
2022/09/10 04:53:02;;;;;;;5.38;2.15;;;;;;;13.34;100.00;99631.25;6151458;23;20238;-85
2022/09/10 04:55:30;;;;;;;5.20;2.38;;;;;;;13.28;100.00;99630.78;6255744;22;20426;-87
2022/09/10 04:57:55;;;;;;;11.77;3.10;;;;;;;13.26;100.00;99630.34;6151971;22;20002;-88
2022/09/10 05:00:22;;;;;;;5.80;2.65;;;;;;;13.24;100.00;99627.19;6151709;22;20004;-83
2022/09/10 05:02:48;;;;;;;8.45;2.80;;;;;;;13.25;100.00;99635.00;6151427;22;20489;-89
2022/09/10 05:05:13;;;;;;;5.28;2.55;;;;;;;13.25;100.00;99631.50;6152068;22;20021;-88
2022/09/10 05:07:39;;;;;;;5.97;2.72;;;;;;;13.30;100.00;99638.63;6153241;23;20078;-93
2022/09/10 05:10:05;;;;;;;;;;;;;;;13.27;100.00;99640.13;6152551;22;20012;-86
2022/09/10 05:12:31;;;;;;;6.05;2.70;;;;;;;13.25;100.00;99639.69;6254693;22;19908;-89
2022/09/10 05:15:01;;;;;;;8.45;2.80;;;;;;;13.27;100.00;99631.94;6151852;23;20080;-86
2022/09/10 05:17:26;;;;;;;6.65;3.47;;;;;;;13.27;100.00;99631.94;6152463;23;20006;-88
2022/09/10 05:19:51;;;;;;;8.00;2.97;;;;;;;13.24;100.00;99638.09;6255742;22;20060;-90
2022/09/10 05:22:17;;;;;;;;;;;;;;;13.28;100.00;99638.19;6152352;23;20012;-88
2022/09/10 05:24:43;;;;;;;7.50;2.58;;;;;;;13.26;100.00;99630.34;6256626;22;19908;-91
2022/09/10 05:27:10;;;;;;;6.55;3.17;;;;;;;13.25;100.00;99640.47;6151830;22;20004;-90
2022/09/10 05:29:36;;;;;;;7.28;3.22;;;;;;;13.23;100.00;99642.00;6151983;23;20127;-88
2022/09/10 05:32:01;;;;;;;7.07;3.33;;;;;;;13.22;100.00;99645.88;6255009;22;20045;-89
2022/09/10 05:34:29;;;;;;;;;;;;;;;13.27;100.00;99644.78;6152121;23;19998;-86
2022/09/10 05:36:55;;;;;;;7.15;3.30;;;;;;;13.28;100.00;99646.41;6151876;22;19905;-90
2022/09/10 05:39:20;;;;;;;6.63;3.15;;;;;;;13.30;100.00;99642.13;6254840;22;20092;-93
2022/09/10 05:41:46;;;;;;;;;;;;;;;13.32;100.00;99650.78;6152079;22;20028;-87
2022/09/10 05:44:13;;;;;;;9.07;3.53;;;;;;;13.35;100.00;99655.50;6151215;22;20223;-88
2022/09/10 05:46:41;;;;;;;8.88;3.35;;;;;;;13.37;100.00;99650.47;6254755;22;20013;-89
2022/09/10 05:49:07;;;;;;;9.77;3.50;;;;;;;13.36;100.00;99656.28;6152085;22;20038;-90
2022/09/10 05:51:33;;;;;;;10.88;3.28;;;;;;;13.32;100.00;99656.25;6151305;23;20001;-89
2022/09/10 05:53:59;;;;;;;9.75;3.38;;;;;;;13.31;100.00;99651.91;6151379;22;20326;-90
2022/09/10 05:56:25;;;;;;;11.20;3.60;;;;;;;13.33;100.00;99646.88;6151742;22;20013;-88
2022/09/10 05:58:52;;;;;;;6.45;3.28;;;;;;;13.33;100.00;99652.34;6152949;22;20005;-89
2022/09/10 06:01:18;;;;;;;8.30;3.67;;;;;;;13.35;100.00;99651.97;6152842;22;20364;-90
2022/09/10 06:03:43;;;;;;;8.45;3.78;;;;;;;13.35;100.00;99658.25;6153002;22;20016;-92
2022/09/10 06:06:09;;;;;;;6.97;3.17;;;;;;;13.33;100.00;99657.81;6153142;23;20327;-93
2022/09/10 06:08:34;;;;;;;;;;;;;;;13.39;100.00;99663.75;6255246;22;20005;-83
2022/09/10 06:11:04;;;;;;;7.85;3.00;;;;;;;13.37;100.00;99669.59;6253999;22;19954;-91
2022/09/10 06:13:31;;;;;;;12.00;3.22;;;;;;;13.39;100.00;99672.75;6254915;22;20021;-88
2022/09/10 06:15:57;;;;;;;7.15;3.33;;;;;;;13.34;100.00;99664.88;6254403;22;20012;-93
2022/09/10 06:18:23;;;;;;;8.13;3.20;;;;;;;13.34;100.00;99666.81;6254419;22;20342;-86
2022/09/10 06:20:49;;;;;;;10.48;2.92;;;;;;;13.40;100.00;99663.41;6227727;23;20461;-86
2022/09/10 06:23:16;;;;;;;9.50;3.85;;;;;;;13.45;100.00;99671.31;6151629;22;20085;-86
2022/09/10 06:25:43;;;;;;;8.38;3.65;;;;;;;13.37;100.00;99664.13;6149342;22;20028;-87
2022/09/10 06:28:11;;;;;;;6.03;2.90;;;;;;;13.41;100.00;99673.19;6151573;22;20108;-85
2022/09/10 06:30:37;;;;;;;7.57;3.40;;;;;;;13.42;100.00;99677.50;6151936;22;20008;-86
2022/09/10 06:33:02;;;;;;;6.97;3.15;;;;;;;13.39;100.00;99672.75;6254650;22;20319;-85
2022/09/10 06:35:28;;;;;;;;;;;;;;;13.41;100.00;99680.59;6151902;22;20013;-83
2022/09/10 06:37:53;;;;;;;9.13;3.45;;;;;;;13.56;100.00;99676.94;6150472;22;20301;-85
2022/09/10 06:40:19;;;;;;;9.15;3.63;;;;;;;13.50;100.00;99683.91;6253438;22;20008;-84
2022/09/10 06:42:44;;;;;;;8.77;3.60;;;;;;;13.57;100.00;99681.25;6150795;23;20008;-86
2022/09/10 06:45:09;;;;;;;7.75;3.50;;;;;;;13.52;100.00;99693.31;6253022;22;20495;-84
2022/09/10 06:47:35;;;;;;;;;;;;;;;13.53;100.00;99677.69;6252275;22;20012;-83
2022/09/10 06:50:02;;;;;;;7.10;3.55;;;;;;;13.57;100.00;99675.78;6150548;22;19990;-83
2022/09/10 06:52:28;;;;;;;6.55;3.25;;;;;;;13.62;100.00;99674.72;6251987;22;20342;-82
2022/09/10 06:54:53;;;;;;;7.93;3.33;;;;;;;13.58;100.00;99679.31;6151018;23;20024;-86
2022/09/10 06:57:19;;;;;;;6.22;3.15;;;;;;;13.62;100.00;99680.19;6150642;23;20005;-83
2022/09/10 06:59:44;;;;;;;6.67;3.57;;;;;;;13.63;100.00;99690.75;6254453;22;20017;-88
2022/09/10 07:02:11;;;;;;;7.43;3.22;;;;;;;13.66;100.00;99687.28;6151567;23;20619;-84
2022/09/10 07:04:36;;;;;;;6.93;3.90;;;;;;;13.72;100.00;99690.50;6228627;22;20033;-84
2022/09/10 07:07:02;;;;;;;12.07;5.00;;;;;;;13.76;100.00;99686.66;6150880;22;19998;-86
2022/09/10 07:09:27;;;;;;;8.55;4.95;;;;;;;13.75;100.00;99681.56;6253235;22;20139;-87
2022/09/10 07:11:52;;;;;;;;;;;;;;;13.83;100.00;99696.97;6253547;22;20081;-82
2022/09/10 07:14:18;;;;;;;7.88;3.40;;;;;;;13.82;100.00;99695.38;6253463;22;19904;-85
2022/09/10 07:16:44;;;;;;;;;;;;;;;13.85;100.00;99694.63;6151901;23;20076;-83
2022/09/10 07:19:12;;;;;;;7.82;3.60;;;;;;;13.88;100.00;99688.44;6254345;22;19916;-86
2022/09/10 07:21:38;;;;;;;11.13;3.72;;;;;;;13.86;100.00;99693.47;6151296;22;20005;-85
2022/09/10 07:24:04;;;;;;;7.28;3.22;;;;;;;13.90;100.00;99697.06;6253291;22;20033;-83
2022/09/10 07:26:30;;;;;;;7.97;3.88;;;;;;;13.88;100.00;99693.91;6252880;22;20021;-85
2022/09/10 07:28:57;;;;;;;;;;;;;;;13.89;100.00;99700.16;6151225;22;20078;-81
2022/09/10 07:31:28;;;;;;;9.10;3.90;;;;;;;13.87;100.00;99703.28;6253011;22;19904;-85
2022/09/10 07:33:59;;;;;;;9.15;3.95;;;;;;;13.86;100.00;99701.69;6150899;22;20012;-82
2022/09/10 07:36:25;;;;;;;9.10;3.53;;;;;;;13.87;100.00;99702.47;6254263;22;20521;-86
2022/09/10 07:38:53;;;;;;;7.05;3.85;;;;;;;13.85;100.00;99702.84;6255256;22;20001;-85
2022/09/10 07:41:18;;;;;;;7.65;4.05;;;;;;;13.84;100.00;99709.47;6257466;22;20092;-83
2022/09/10 07:43:44;;;;;;;13.98;4.50;;;;;;;13.87;100.00;99703.28;6154699;22;20016;-82
2022/09/10 07:46:11;;;;;;;;;;;;;;;13.89;100.00;99711.91;6154989;22;20012;-83
2022/09/10 07:48:40;;;;;;;9.23;3.95;;;;;;;13.92;100.00;99713.91;6152742;23;19905;-86
2022/09/10 07:51:09;;;;;;;9.25;4.18;;;;;;;14.01;100.00;99710.91;6155346;22;20001;-82
2022/09/10 07:53:34;;;;;;;6.95;3.70;;;;;;;14.06;100.00;99710.59;6257967;22;20006;-85
2022/09/10 07:56:02;;;;;;;9.45;4.05;;;;;;;14.02;100.00;99715.22;6255572;22;20012;-83
2022/09/10 07:58:30;;;;;;;9.00;3.90;;;;;;;14.00;100.00;99712.06;6151583;22;20084;-82
2022/09/10 08:00:55;;;;;;;9.00;4.80;;;;;;;14.13;100.00;99714.25;6151074;22;20033;-82
2022/09/10 08:03:20;;;;;;;9.65;4.20;;;;;;;14.03;100.00;99714.88;6150294;23;20060;-83
2022/09/10 08:05:47;;;;;;;;;;;;;;;14.02;100.00;99718.75;6253400;22;20445;-82
2022/09/10 08:08:13;;;;;;;9.32;4.40;;;;;;;14.10;100.00;99720.44;6252963;22;20337;-82
2022/09/10 08:10:39;;;;;;;9.25;4.88;;;;;;;14.10;100.00;99725.91;6150670;22;20005;-82
2022/09/10 08:13:05;;;;;;;8.70;4.15;;;;;;;14.03;100.00;99714.88;6152165;22;20058;-83
2022/09/10 08:15:32;;;;;;;;;;;;;;;14.05;100.00;99720.75;6151514;23;20319;-89
2022/09/10 08:17:59;;;;;;;7.80;4.18;;;;;;;14.06;100.00;99727.81;6253037;22;19911;-84
2022/09/10 08:20:25;;;;;;;8.25;3.90;;;;;;;14.19;100.00;99713.94;6150782;22;19998;-83
2022/09/10 08:22:51;;;;;;;;;;;;;;;14.23;100.00;99721.03;6252830;22;20010;-83
2022/09/10 08:25:18;;;;;;;8.55;3.80;;;;;;;14.11;100.00;99722.03;6150233;22;19966;-84
2022/09/10 08:27:45;;;;;;;7.60;3.58;;;;;;;14.11;100.00;99726.72;6251158;22;20012;-83
2022/09/10 08:30:11;;;;;;;10.20;4.55;;;;;;;14.17;100.00;99727.19;6253601;22;20005;-83
2022/09/10 08:32:39;;;;;;;9.38;3.65;;;;;;;14.12;100.00;99720.88;6151088;22;20335;-84
2022/09/10 08:35:05;;;;;;;9.48;3.92;;;;;;;14.10;100.00;99725.91;6150550;22;20217;-81
2022/09/10 08:37:32;;;;;;;7.07;3.67;;;;;;;14.18;100.00;99726.03;6150262;23;20081;-82
2022/09/10 08:39:58;;;;;;;12.20;4.05;;;;;;;14.06;100.00;99716.06;6252085;22;20006;-81
2022/09/10 08:42:29;;;;;;;9.50;4.47;;;;;;;14.20;100.00;99724.50;6150512;22;20103;-83
2022/09/10 08:45:03;;;;;;;8.25;4.20;;;;;;;14.23;100.00;99722.97;6150509;22;20081;-85
2022/09/10 08:47:29;;;;;;;7.43;4.00;;;;;;;14.24;100.00;99722.59;6151165;22;20012;-86
2022/09/10 08:50:00;;;;;;;8.53;4.53;;;;;;;14.38;100.00;99725.56;6150307;23;20040;-84
2022/09/10 08:52:37;;;;;;;9.65;4.38;;;;;;;14.35;100.00;99718.09;6151179;22;20012;-85
2022/09/10 08:55:28;;;;;;;10.30;4.03;;;;;;;14.25;100.00;99717.91;6151009;22;20007;-81
2022/09/10 08:58:02;;;;;;;8.50;4.38;;;;;;;14.33;100.00;99719.63;6149817;22;20017;-87
2022/09/10 09:00:35;;;;;;;9.05;4.45;;;;;;;14.36;100.00;99716.13;6150580;22;19997;-88
2022/09/10 09:03:13;;;;;;;7.78;3.80;;;;;;;14.40;100.00;99716.97;6252120;22;20495;-84
2022/09/10 09:05:54;;;;;;;9.95;4.35;;;;;;;14.40;100.00;99714.22;6149669;22;20055;-85
2022/09/10 09:08:26;;;;;;;11.27;4.07;;;;;;;14.40;100.00;99714.22;6252333;22;20006;-83
2022/09/10 09:11:09;;;;;;;8.20;4.10;;;;;;;14.42;100.00;99709.16;6149554;23;20006;-84
2022/09/10 09:13:57;;;;;;;7.72;4.10;;;;;;;14.35;100.00;99709.88;6149741;23;20002;-86
2022/09/10 09:16:43;;;;;;;;;;;;;;;14.46;100.00;99710.06;6149751;23;20006;-86
2022/09/10 09:19:16;;;;;;;8.77;4.32;;;;;;;14.53;100.00;99701.94;6252375;22;19905;-82
2022/09/10 09:21:52;;;;;;;8.60;4.30;;;;;;;14.54;100.00;99697.25;6149723;22;20488;-86
2022/09/10 09:24:21;;;;;;;8.32;4.05;;;;;;;14.63;100.00;99701.28;6151397;22;20009;-84
2022/09/10 09:26:47;;;;;;;10.65;4.35;;;;;;;14.61;100.00;99703.63;6149207;23;20040;-85
2022/09/10 09:29:20;;;;;;;8.00;4.22;;;;;;;14.64;100.00;99702.88;6228057;23;20021;-88
2022/09/10 09:31:49;;;;;;;7.50;3.55;;;;;;;14.72;100.00;99690.81;6255198;22;20084;-88
2022/09/10 09:34:35;;;;;;;9.20;4.20;;;;;;;14.65;100.00;99703.66;6255881;22;20013;-92
2022/09/10 09:37:05;;;;;;;12.57;4.63;;;;;;;14.60;100.00;99701.22;6151906;22;20001;-86
2022/09/10 09:39:44;;;;;;;7.80;4.07;;;;;;;14.57;100.00;99712.94;6253802;22;20085;-83
2022/09/10 09:42:18;;;;;;;10.50;4.47;;;;;;;14.60;100.00;99703.97;6254250;22;20014;-83
2022/09/10 09:44:49;;;;;;;7.57;4.15;;;;;;;14.47;100.00;99700.69;6254928;22;20431;-85
2022/09/10 09:47:14;;;;;;;9.85;4.43;;;;;;;14.43;100.00;99710.75;6151540;22;20013;-83
2022/09/10 09:49:40;;;;;;;9.38;4.35;;;;;;;14.40;100.00;99708.75;6151563;22;20006;-85
2022/09/10 09:52:17;;;;;;;;;;;;;;;14.30;100.00;99695.72;6152895;22;20079;-85
2022/09/10 09:54:57;;;;;;;7.43;3.17;;;;;;;14.23;100.00;99701.06;6151897;23;19963;-85
2022/09/10 09:57:28;;;;;;;7.30;4.13;;;;;;;14.32;100.00;99707.09;6152392;22;20025;-87
2022/09/10 10:00:14;;;;;;;9.45;4.05;;;;;;;14.15;100.00;99698.25;6252523;22;20032;-88
2022/09/10 10:02:39;;;;;;;11.90;3.70;;;;;;;14.07;100.00;99693.81;6229110;23;20427;-84
2022/09/10 10:05:08;;;;;;;;;;;;;;;14.06;100.00;99700.44;6151991;22;20013;-83
2022/09/10 10:07:35;;;;;;;5.88;2.95;;;;;;;14.11;100.00;99685.66;6151459;23;19983;-83
2022/09/10 10:10:04;;;;;;;7.72;2.95;;;;;;;14.09;100.00;99690.69;6254176;22;20013;-82
2022/09/10 10:12:30;;;;;;;7.50;2.95;;;;;;;14.10;100.00;99684.84;6151057;22;19997;-84
2022/09/10 10:14:56;;;;;;;6.90;3.72;;;;;;;14.07;100.00;99685.59;6151608;22;20078;-84
2022/09/10 10:17:32;;;;;;;6.72;3.72;;;;;;;14.12;100.00;99681.78;6254496;22;20009;-83
2022/09/10 10:20:00;;;;;;;8.13;3.83;;;;;;;14.17;100.00;99680.66;6151319;23;20005;-83
2022/09/10 10:22:29;;;;;;;9.85;4.13;;;;;;;14.16;100.00;99682.59;6254039;22;20079;-81
2022/09/10 10:24:55;;;;;;;8.23;3.97;;;;;;;14.09;100.00;99683.28;6151329;22;20051;-82
2022/09/10 10:27:31;;;;;;;8.57;4.15;;;;;;;14.06;100.00;99677.75;6253610;22;20429;-81
2022/09/10 10:30:20;;;;;;;10.65;5.18;;;;;;;14.03;100.00;99689.44;6254070;22;20019;-81
2022/09/10 10:32:54;;;;;;;7.85;4.22;;;;;;;14.03;100.00;99679.28;6151494;23;20012;-83
2022/09/10 10:35:31;;;;;;;10.43;4.55;;;;;;;14.02;100.00;99680.44;6151182;23;20059;-82
2022/09/10 10:38:25;;;;;;;11.65;5.38;;;;;;;14.07;100.00;99685.59;6254299;22;20129;-82
2022/09/10 10:41:08;;;;;;;9.48;4.85;;;;;;;14.09;100.00;99690.69;6150940;22;20005;-84
2022/09/10 10:43:42;;;;;;;8.90;4.70;;;;;;;14.07;100.00;99685.59;6150990;23;20002;-84
2022/09/10 10:46:19;;;;;;;10.57;5.18;;;;;;;14.10;100.00;99681.31;6151178;23;20010;-84
2022/09/10 10:48:59;;;;;;;10.63;5.22;;;;;;;14.11;100.00;99680.97;6151040;22;20009;-83
2022/09/10 10:51:47;;;;;;;11.05;5.57;;;;;;;14.16;100.00;99682.59;6151293;22;20072;-87
2022/09/10 10:54:27;;;;;;;11.98;5.55;;;;;;;14.19;100.00;99684.59;6151411;22;20480;-84
2022/09/10 10:57:03;;;;;;;11.60;5.88;;;;;;;14.35;100.00;99681.69;6151685;22;20006;-84
2022/09/10 10:59:53;;;;;;;15.35;6.72;;;;;;;14.47;100.00;99689.72;6151598;22;20130;-84
2022/09/10 11:02:53;;;;;;;12.88;6.68;;;;;;;14.51;100.00;99693.28;6150898;23;20009;-82
2022/09/10 11:05:32;;;;;;;15.43;7.47;;;;;;;14.68;100.00;99687.25;6151568;22;20434;-84
2022/09/10 11:08:10;;;;;;;16.67;6.63;;;;;;;14.85;100.00;99687.84;6251225;22;20060;-81
2022/09/10 11:11:12;;;;;;;17.88;7.82;;;;;;;14.90;100.00;99687.50;6248793;22;20013;-82
2022/09/10 11:13:40;;;;;;;17.88;7.50;;;;;;;14.93;100.00;99686.75;6151416;22;20010;-84
2022/09/10 11:16:13;;;;;;;14.02;6.70;;;;;;;15.03;100.00;99683.34;6150882;23;20307;-81
2022/09/10 11:19:07;;;;;;;13.80;6.95;;;;;;;15.14;100.00;99687.00;6150895;23;20430;-81
2022/09/10 11:21:38;;;;;;;13.77;7.38;;;;;;;15.27;100.00;99688.31;6254014;22;20036;-82
2022/09/10 11:24:18;;;;;;;12.82;6.82;;;;;;;15.22;100.00;99688.66;6253736;22;20427;-82
2022/09/10 11:26:50;;;;;;;14.05;7.07;;;;;;;15.28;100.00;99687.16;6253576;22;20028;-81
2022/09/10 11:29:24;;;;;;;13.80;7.65;;;;;;;15.40;100.00;99688.84;6253694;22;20090;-81
2022/09/10 11:32:02;;;;;;;16.35;7.43;;;;;;;15.46;100.00;99681.84;6253632;22;20015;-80
2022/09/10 11:34:40;;;;;;;15.20;7.28;;;;;;;15.53;100.00;99683.88;6253583;22;20051;-80
2022/09/10 11:37:18;;;;;;;16.83;7.43;;;;;;;15.38;100.00;99677.44;6151031;22;20012;-80
2022/09/10 11:39:51;;;;;;;14.52;7.47;;;;;;;15.40;100.00;99682.56;6150827;23;20009;-81
2022/09/10 11:42:23;;;;;;;14.15;7.20;;;;;;;15.32;100.00;99682.50;6150964;22;20006;-81
2022/09/10 11:45:28;;;;;;;13.63;6.60;;;;;;;15.24;100.00;99685.53;6253414;22;20010;-81
2022/09/10 11:48:27;;;;;;;13.15;6.95;;;;;;;15.14;100.00;99684.28;6150970;22;20012;-80